sensor_id;sensor_type;location;lat;lon;timestamp;P1;durP1;ratioP1;P2;durP2;ratioP2
75535;SDS011;64119;52.070;20.804;2023-04-30T00:00:35;12.50;;;9.40;;
75535;SDS011;64119;52.070;20.804;2023-04-30T00:03:22;15.20;;;9.80;;
75535;SDS011;64119;52.070;20.804;2023-04-30T00:05:51;11.30;;;8.20;;
75535;SDS011;64119;52.070;20.804;2023-04-30T00:08:18;14.80;;;8.50;;
75535;SDS011;64119;52.070;20.804;2023-04-30T00:10:46;13.00;;;8.80;;
75535;SDS011;64119;52.070;20.804;2023-04-30T00:13:14;9.80;;;7.70;;
75535;SDS011;64119;52.070;20.804;2023-04-30T00:15:42;11.90;;;8.50;;
75535;SDS011;64119;52.070;20.804;2023-04-30T00:18:09;12.40;;;9.10;;
75535;SDS011;64119;52.070;20.804;2023-04-30T00:20:38;12.50;;;9.30;;
75535;SDS011;64119;52.070;20.804;2023-04-30T00:23:06;13.00;;;8.80;;
75535;SDS011;64119;52.070;20.804;2023-04-30T00:25:34;12.40;;;8.80;;
75535;SDS011;64119;52.070;20.804;2023-04-30T00:28:01;13.20;;;9.50;;
75535;SDS011;64119;52.070;20.804;2023-04-30T00:30:29;10.70;;;8.00;;
75535;SDS011;64119;52.070;20.804;2023-04-30T00:32:58;10.00;;;7.90;;
75535;SDS011;64119;52.070;20.804;2023-04-30T00:35:27;13.30;;;8.50;;
75535;SDS011;64119;52.070;20.804;2023-04-30T00:37:54;12.40;;;8.20;;
75535;SDS011;64119;52.070;20.804;2023-04-30T00:40:22;10.00;;;7.40;;
75535;SDS011;64119;52.070;20.804;2023-04-30T00:42:50;11.40;;;7.50;;
75535;SDS011;64119;52.070;20.804;2023-04-30T00:45:23;12.60;;;9.10;;
75535;SDS011;64119;52.070;20.804;2023-04-30T00:47:51;12.90;;;8.90;;
75535;SDS011;64119;52.070;20.804;2023-04-30T00:50:19;11.00;;;7.90;;
75535;SDS011;64119;52.070;20.804;2023-04-30T00:52:47;10.70;;;7.80;;
75535;SDS011;64119;52.070;20.804;2023-04-30T00:55:15;10.90;;;8.10;;
75535;SDS011;64119;52.070;20.804;2023-04-30T00:57:43;11.10;;;7.60;;
75535;SDS011;64119;52.070;20.804;2023-04-30T01:00:12;12.00;;;8.90;;
75535;SDS011;64119;52.070;20.804;2023-04-30T01:02:40;11.20;;;8.30;;
75535;SDS011;64119;52.070;20.804;2023-04-30T01:05:08;13.50;;;8.80;;
75535;SDS011;64119;52.070;20.804;2023-04-30T01:07:37;12.10;;;9.00;;
75535;SDS011;64119;52.070;20.804;2023-04-30T01:10:08;10.60;;;8.10;;
75535;SDS011;64119;52.070;20.804;2023-04-30T01:20:26;16.00;;;10.90;;
75535;SDS011;64119;52.070;20.804;2023-04-30T01:28:43;11.20;;;8.20;;
75535;SDS011;64119;52.070;20.804;2023-04-30T01:31:13;12.10;;;9.30;;
75535;SDS011;64119;52.070;20.804;2023-04-30T01:53:06;11.70;;;7.50;;
75535;SDS011;64119;52.070;20.804;2023-04-30T01:55:42;12.70;;;8.30;;
75535;SDS011;64119;52.070;20.804;2023-04-30T01:58:14;12.80;;;8.50;;
75535;SDS011;64119;52.070;20.804;2023-04-30T02:00:43;11.70;;;7.60;;
75535;SDS011;64119;52.070;20.804;2023-04-30T02:03:10;12.90;;;8.80;;
75535;SDS011;64119;52.070;20.804;2023-04-30T02:05:38;12.60;;;8.10;;
75535;SDS011;64119;52.070;20.804;2023-04-30T02:08:06;9.30;;;7.00;;
75535;SDS011;64119;52.070;20.804;2023-04-30T02:10:34;10.30;;;8.00;;
75535;SDS011;64119;52.070;20.804;2023-04-30T02:13:02;11.90;;;9.10;;
75535;SDS011;64119;52.070;20.804;2023-04-30T02:15:30;11.80;;;7.20;;
75535;SDS011;64119;52.070;20.804;2023-04-30T02:17:58;12.10;;;7.80;;
75535;SDS011;64119;52.070;20.804;2023-04-30T02:20:26;10.70;;;7.90;;
75535;SDS011;64119;52.070;20.804;2023-04-30T02:22:54;11.70;;;8.70;;
75535;SDS011;64119;52.070;20.804;2023-04-30T02:25:23;13.10;;;8.00;;
75535;SDS011;64119;52.070;20.804;2023-04-30T02:27:51;13.60;;;9.40;;
75535;SDS011;64119;52.070;20.804;2023-04-30T02:30:18;12.90;;;8.40;;
75535;SDS011;64119;52.070;20.804;2023-04-30T02:32:47;11.60;;;7.40;;
75535;SDS011;64119;52.070;20.804;2023-04-30T02:35:15;13.30;;;8.70;;
75535;SDS011;64119;52.070;20.804;2023-04-30T02:37:42;13.40;;;9.10;;
75535;SDS011;64119;52.070;20.804;2023-04-30T02:40:10;11.90;;;7.80;;
75535;SDS011;64119;52.070;20.804;2023-04-30T02:42:38;12.90;;;7.60;;
75535;SDS011;64119;52.070;20.804;2023-04-30T02:45:06;10.90;;;7.10;;
75535;SDS011;64119;52.070;20.804;2023-04-30T02:47:35;11.50;;;7.20;;
75535;SDS011;64119;52.070;20.804;2023-04-30T02:50:03;12.70;;;8.60;;
75535;SDS011;64119;52.070;20.804;2023-04-30T02:52:32;13.80;;;8.80;;
75535;SDS011;64119;52.070;20.804;2023-04-30T02:55:00;14.80;;;9.90;;
75535;SDS011;64119;52.070;20.804;2023-04-30T02:57:28;13.10;;;9.50;;
75535;SDS011;64119;52.070;20.804;2023-04-30T02:59:56;17.50;;;9.90;;
75535;SDS011;64119;52.070;20.804;2023-04-30T03:02:24;17.20;;;10.90;;
75535;SDS011;64119;52.070;20.804;2023-04-30T03:04:52;10.70;;;7.40;;
75535;SDS011;64119;52.070;20.804;2023-04-30T03:07:19;13.70;;;9.90;;
75535;SDS011;64119;52.070;20.804;2023-04-30T03:09:47;14.20;;;9.60;;
75535;SDS011;64119;52.070;20.804;2023-04-30T03:12:15;13.10;;;9.50;;
75535;SDS011;64119;52.070;20.804;2023-04-30T03:14:43;15.60;;;9.70;;
75535;SDS011;64119;52.070;20.804;2023-04-30T03:17:11;12.00;;;7.70;;
75535;SDS011;64119;52.070;20.804;2023-04-30T03:19:39;11.60;;;7.20;;
75535;SDS011;64119;52.070;20.804;2023-04-30T03:22:06;13.00;;;9.40;;
75535;SDS011;64119;52.070;20.804;2023-04-30T03:24:34;10.80;;;6.40;;
75535;SDS011;64119;52.070;20.804;2023-04-30T03:27:02;12.80;;;8.40;;
75535;SDS011;64119;52.070;20.804;2023-04-30T03:29:30;13.00;;;8.30;;
75535;SDS011;64119;52.070;20.804;2023-04-30T03:31:57;9.90;;;6.70;;
75535;SDS011;64119;52.070;20.804;2023-04-30T03:34:25;11.10;;;6.70;;
75535;SDS011;64119;52.070;20.804;2023-04-30T03:36:53;13.30;;;8.00;;
75535;SDS011;64119;52.070;20.804;2023-04-30T03:39:21;10.60;;;7.00;;
75535;SDS011;64119;52.070;20.804;2023-04-30T03:41:49;11.40;;;6.90;;
75535;SDS011;64119;52.070;20.804;2023-04-30T03:44:17;10.40;;;6.40;;
75535;SDS011;64119;52.070;20.804;2023-04-30T03:46:45;9.50;;;5.80;;
75535;SDS011;64119;52.070;20.804;2023-04-30T03:49:12;8.60;;;5.60;;
75535;SDS011;64119;52.070;20.804;2023-04-30T03:51:40;10.80;;;7.00;;
75535;SDS011;64119;52.070;20.804;2023-04-30T03:54:08;9.00;;;5.50;;
75535;SDS011;64119;52.070;20.804;2023-04-30T03:56:37;11.50;;;7.70;;
75535;SDS011;64119;52.070;20.804;2023-04-30T03:59:05;11.60;;;7.60;;
75535;SDS011;64119;52.070;20.804;2023-04-30T04:01:33;14.10;;;8.50;;
75535;SDS011;64119;52.070;20.804;2023-04-30T04:04:01;11.40;;;7.20;;
75535;SDS011;64119;52.070;20.804;2023-04-30T04:06:29;10.50;;;7.30;;
75535;SDS011;64119;52.070;20.804;2023-04-30T04:08:58;14.20;;;8.60;;
75535;SDS011;64119;52.070;20.804;2023-04-30T04:11:26;11.40;;;7.50;;
75535;SDS011;64119;52.070;20.804;2023-04-30T04:13:55;13.00;;;6.80;;
75535;SDS011;64119;52.070;20.804;2023-04-30T04:16:23;13.30;;;8.30;;
75535;SDS011;64119;52.070;20.804;2023-04-30T04:18:51;9.10;;;5.90;;
75535;SDS011;64119;52.070;20.804;2023-04-30T04:21:19;10.40;;;6.40;;
75535;SDS011;64119;52.070;20.804;2023-04-30T04:23:50;12.50;;;7.80;;
75535;SDS011;64119;52.070;20.804;2023-04-30T04:26:18;12.70;;;7.70;;
75535;SDS011;64119;52.070;20.804;2023-04-30T04:28:48;11.90;;;7.20;;
75535;SDS011;64119;52.070;20.804;2023-04-30T04:31:16;13.00;;;7.90;;
75535;SDS011;64119;52.070;20.804;2023-04-30T04:33:44;13.50;;;7.60;;
75535;SDS011;64119;52.070;20.804;2023-04-30T04:36:12;13.30;;;8.90;;
75535;SDS011;64119;52.070;20.804;2023-04-30T04:38:40;10.40;;;6.50;;
75535;SDS011;64119;52.070;20.804;2023-04-30T04:41:08;11.20;;;7.00;;
75535;SDS011;64119;52.070;20.804;2023-04-30T04:43:36;12.20;;;7.30;;
75535;SDS011;64119;52.070;20.804;2023-04-30T04:46:04;12.40;;;7.20;;
75535;SDS011;64119;52.070;20.804;2023-04-30T04:48:33;9.80;;;6.50;;
75535;SDS011;64119;52.070;20.804;2023-04-30T04:51:01;11.90;;;7.30;;
75535;SDS011;64119;52.070;20.804;2023-04-30T04:53:29;12.80;;;7.70;;
75535;SDS011;64119;52.070;20.804;2023-04-30T04:55:58;11.10;;;6.90;;
75535;SDS011;64119;52.070;20.804;2023-04-30T04:58:26;8.70;;;5.30;;
75535;SDS011;64119;52.070;20.804;2023-04-30T05:03:24;10.60;;;6.50;;
75535;SDS011;64119;52.070;20.804;2023-04-30T05:05:53;11.40;;;6.80;;
75535;SDS011;64119;52.070;20.804;2023-04-30T05:08:21;11.00;;;6.50;;
75535;SDS011;64119;52.070;20.804;2023-04-30T05:10:49;11.30;;;6.90;;
75535;SDS011;64119;52.070;20.804;2023-04-30T05:13:18;9.20;;;5.70;;
75535;SDS011;64119;52.070;20.804;2023-04-30T05:15:46;8.00;;;5.50;;
75535;SDS011;64119;52.070;20.804;2023-04-30T05:18:16;13.60;;;7.30;;
75535;SDS011;64119;52.070;20.804;2023-04-30T05:20:44;10.50;;;5.90;;
75535;SDS011;64119;52.070;20.804;2023-04-30T05:23:12;11.00;;;7.00;;
75535;SDS011;64119;52.070;20.804;2023-04-30T05:25:40;9.50;;;6.10;;
75535;SDS011;64119;52.070;20.804;2023-04-30T05:28:07;10.20;;;7.00;;
75535;SDS011;64119;52.070;20.804;2023-04-30T05:30:35;11.80;;;7.10;;
75535;SDS011;64119;52.070;20.804;2023-04-30T05:33:03;11.30;;;7.70;;
75535;SDS011;64119;52.070;20.804;2023-04-30T05:35:31;8.60;;;5.60;;
75535;SDS011;64119;52.070;20.804;2023-04-30T05:38:02;13.90;;;7.70;;
75535;SDS011;64119;52.070;20.804;2023-04-30T05:40:30;10.90;;;7.90;;
75535;SDS011;64119;52.070;20.804;2023-04-30T05:42:59;10.30;;;7.10;;
75535;SDS011;64119;52.070;20.804;2023-04-30T05:45:27;11.30;;;7.10;;
75535;SDS011;64119;52.070;20.804;2023-04-30T05:47:54;11.60;;;7.70;;
75535;SDS011;64119;52.070;20.804;2023-04-30T05:50:22;14.90;;;8.90;;
75535;SDS011;64119;52.070;20.804;2023-04-30T05:52:50;14.10;;;9.30;;
75535;SDS011;64119;52.070;20.804;2023-04-30T05:55:18;13.20;;;8.60;;
75535;SDS011;64119;52.070;20.804;2023-04-30T05:57:46;11.50;;;7.20;;
75535;SDS011;64119;52.070;20.804;2023-04-30T06:00:15;12.20;;;8.00;;
75535;SDS011;64119;52.070;20.804;2023-04-30T06:02:43;12.00;;;7.70;;
75535;SDS011;64119;52.070;20.804;2023-04-30T06:05:12;14.30;;;9.80;;
75535;SDS011;64119;52.070;20.804;2023-04-30T06:07:42;11.10;;;7.20;;
75535;SDS011;64119;52.070;20.804;2023-04-30T06:10:10;11.70;;;7.40;;
75535;SDS011;64119;52.070;20.804;2023-04-30T06:12:39;10.50;;;6.50;;
75535;SDS011;64119;52.070;20.804;2023-04-30T06:15:07;14.00;;;8.70;;
75535;SDS011;64119;52.070;20.804;2023-04-30T06:17:35;13.90;;;8.40;;
75535;SDS011;64119;52.070;20.804;2023-04-30T06:20:03;15.60;;;9.20;;
75535;SDS011;64119;52.070;20.804;2023-04-30T06:22:33;11.70;;;6.60;;
75535;SDS011;64119;52.070;20.804;2023-04-30T06:25:01;14.70;;;8.00;;
75535;SDS011;64119;52.070;20.804;2023-04-30T06:27:29;11.50;;;7.80;;
75535;SDS011;64119;52.070;20.804;2023-04-30T06:29:58;13.70;;;8.60;;
75535;SDS011;64119;52.070;20.804;2023-04-30T06:32:27;11.00;;;6.80;;
75535;SDS011;64119;52.070;20.804;2023-04-30T06:34:55;12.20;;;8.00;;
75535;SDS011;64119;52.070;20.804;2023-04-30T06:37:23;12.60;;;7.60;;
75535;SDS011;64119;52.070;20.804;2023-04-30T06:39:51;11.80;;;6.70;;
75535;SDS011;64119;52.070;20.804;2023-04-30T06:42:19;11.40;;;7.60;;
75535;SDS011;64119;52.070;20.804;2023-04-30T06:44:47;13.50;;;8.10;;
75535;SDS011;64119;52.070;20.804;2023-04-30T06:47:16;11.80;;;7.40;;
75535;SDS011;64119;52.070;20.804;2023-04-30T06:49:44;11.40;;;7.00;;
75535;SDS011;64119;52.070;20.804;2023-04-30T06:52:12;10.40;;;7.50;;
75535;SDS011;64119;52.070;20.804;2023-04-30T06:54:40;10.60;;;6.40;;
75535;SDS011;64119;52.070;20.804;2023-04-30T06:57:09;12.20;;;8.30;;
75535;SDS011;64119;52.070;20.804;2023-04-30T06:59:37;7.40;;;4.50;;
75535;SDS011;64119;52.070;20.804;2023-04-30T07:02:05;9.10;;;5.40;;
75535;SDS011;64119;52.070;20.804;2023-04-30T07:04:34;5.50;;;3.30;;
75535;SDS011;64119;52.070;20.804;2023-04-30T07:07:02;7.50;;;3.60;;
75535;SDS011;64119;52.070;20.804;2023-04-30T07:09:30;6.00;;;3.50;;
75535;SDS011;64119;52.070;20.804;2023-04-30T07:11:58;6.70;;;2.90;;
75535;SDS011;64119;52.070;20.804;2023-04-30T07:14:27;5.60;;;3.50;;
75535;SDS011;64119;52.070;20.804;2023-04-30T07:16:55;5.90;;;3.40;;
75535;SDS011;64119;52.070;20.804;2023-04-30T07:19:23;6.60;;;3.10;;
75535;SDS011;64119;52.070;20.804;2023-04-30T07:21:53;6.10;;;3.20;;
75535;SDS011;64119;52.070;20.804;2023-04-30T07:24:21;3.60;;;2.50;;
75535;SDS011;64119;52.070;20.804;2023-04-30T07:26:49;5.20;;;2.90;;
75535;SDS011;64119;52.070;20.804;2023-04-30T07:29:17;5.40;;;2.50;;
75535;SDS011;64119;52.070;20.804;2023-04-30T07:31:45;6.50;;;2.80;;
75535;SDS011;64119;52.070;20.804;2023-04-30T07:34:13;5.10;;;2.20;;
75535;SDS011;64119;52.070;20.804;2023-04-30T07:36:41;4.40;;;3.00;;
75535;SDS011;64119;52.070;20.804;2023-04-30T07:39:09;5.80;;;2.20;;
75535;SDS011;64119;52.070;20.804;2023-04-30T07:41:38;4.40;;;2.60;;
75535;SDS011;64119;52.070;20.804;2023-04-30T07:44:06;4.20;;;2.20;;
75535;SDS011;64119;52.070;20.804;2023-04-30T07:46:34;4.80;;;2.10;;
75535;SDS011;64119;52.070;20.804;2023-04-30T07:49:03;6.40;;;2.80;;
75535;SDS011;64119;52.070;20.804;2023-04-30T07:51:31;5.60;;;2.80;;
75535;SDS011;64119;52.070;20.804;2023-04-30T07:53:59;4.70;;;2.10;;
75535;SDS011;64119;52.070;20.804;2023-04-30T07:56:27;4.20;;;1.90;;
75535;SDS011;64119;52.070;20.804;2023-04-30T07:58:55;2.50;;;1.70;;
75535;SDS011;64119;52.070;20.804;2023-04-30T08:01:23;6.60;;;2.20;;
75535;SDS011;64119;52.070;20.804;2023-04-30T08:03:51;7.00;;;2.00;;
75535;SDS011;64119;52.070;20.804;2023-04-30T08:06:19;5.10;;;2.20;;
75535;SDS011;64119;52.070;20.804;2023-04-30T08:08:47;3.70;;;2.30;;
75535;SDS011;64119;52.070;20.804;2023-04-30T08:11:16;3.80;;;2.10;;
75535;SDS011;64119;52.070;20.804;2023-04-30T08:13:44;5.00;;;2.10;;
75535;SDS011;64119;52.070;20.804;2023-04-30T08:16:13;3.70;;;2.00;;
75535;SDS011;64119;52.070;20.804;2023-04-30T08:18:40;4.40;;;2.20;;
75535;SDS011;64119;52.070;20.804;2023-04-30T08:21:11;3.50;;;2.30;;
75535;SDS011;64119;52.070;20.804;2023-04-30T08:23:40;4.20;;;1.90;;
75535;SDS011;64119;52.070;20.804;2023-04-30T08:26:08;3.10;;;1.60;;
75535;SDS011;64119;52.070;20.804;2023-04-30T08:28:35;4.90;;;2.30;;
75535;SDS011;64119;52.070;20.804;2023-04-30T08:31:03;6.30;;;2.00;;
75535;SDS011;64119;52.070;20.804;2023-04-30T08:33:31;3.40;;;1.80;;
75535;SDS011;64119;52.070;20.804;2023-04-30T08:35:59;3.30;;;1.80;;
75535;SDS011;64119;52.070;20.804;2023-04-30T08:38:27;4.10;;;1.80;;
75535;SDS011;64119;52.070;20.804;2023-04-30T08:40:56;4.50;;;1.70;;
75535;SDS011;64119;52.070;20.804;2023-04-30T08:43:36;2.70;;;1.70;;
75535;SDS011;64119;52.070;20.804;2023-04-30T08:46:04;2.50;;;1.30;;
75535;SDS011;64119;52.070;20.804;2023-04-30T08:48:33;5.70;;;1.60;;
75535;SDS011;64119;52.070;20.804;2023-04-30T08:51:01;3.60;;;1.40;;
75535;SDS011;64119;52.070;20.804;2023-04-30T08:53:30;4.30;;;1.70;;
75535;SDS011;64119;52.070;20.804;2023-04-30T08:56:02;5.00;;;1.90;;
75535;SDS011;64119;52.070;20.804;2023-04-30T08:58:30;3.10;;;1.50;;
75535;SDS011;64119;52.070;20.804;2023-04-30T09:00:58;4.10;;;1.90;;
75535;SDS011;64119;52.070;20.804;2023-04-30T09:05:57;3.40;;;1.30;;
75535;SDS011;64119;52.070;20.804;2023-04-30T09:13:49;2.00;;;0.90;;
75535;SDS011;64119;52.070;20.804;2023-04-30T09:16:21;2.50;;;1.00;;
75535;SDS011;64119;52.070;20.804;2023-04-30T09:18:49;2.80;;;1.30;;
75535;SDS011;64119;52.070;20.804;2023-04-30T09:21:39;3.90;;;1.40;;
75535;SDS011;64119;52.070;20.804;2023-04-30T09:24:06;2.10;;;1.10;;
75535;SDS011;64119;52.070;20.804;2023-04-30T09:26:37;2.20;;;1.20;;
75535;SDS011;64119;52.070;20.804;2023-04-30T09:29:05;2.00;;;1.20;;
75535;SDS011;64119;52.070;20.804;2023-04-30T09:31:37;2.30;;;1.40;;
75535;SDS011;64119;52.070;20.804;2023-04-30T09:34:05;3.40;;;1.60;;
75535;SDS011;64119;52.070;20.804;2023-04-30T09:38:52;3.10;;;1.10;;
75535;SDS011;64119;52.070;20.804;2023-04-30T09:43:49;3.10;;;1.60;;
75535;SDS011;64119;52.070;20.804;2023-04-30T09:46:18;2.40;;;1.50;;
75535;SDS011;64119;52.070;20.804;2023-04-30T09:48:55;3.20;;;1.70;;
75535;SDS011;64119;52.070;20.804;2023-04-30T09:51:24;4.60;;;1.80;;
75535;SDS011;64119;52.070;20.804;2023-04-30T09:53:56;2.80;;;1.40;;
75535;SDS011;64119;52.070;20.804;2023-04-30T09:56:24;2.90;;;1.40;;
75535;SDS011;64119;52.070;20.804;2023-04-30T09:58:53;2.70;;;1.30;;
75535;SDS011;64119;52.070;20.804;2023-04-30T10:01:24;5.60;;;1.40;;
75535;SDS011;64119;52.070;20.804;2023-04-30T10:03:53;3.20;;;1.50;;
75535;SDS011;64119;52.070;20.804;2023-04-30T10:06:22;4.40;;;1.50;;
75535;SDS011;64119;52.070;20.804;2023-04-30T10:08:52;3.40;;;1.20;;
75535;SDS011;64119;52.070;20.804;2023-04-30T10:11:25;4.20;;;1.50;;
75535;SDS011;64119;52.070;20.804;2023-04-30T10:17:00;2.60;;;1.10;;
75535;SDS011;64119;52.070;20.804;2023-04-30T10:19:35;1.90;;;1.00;;
75535;SDS011;64119;52.070;20.804;2023-04-30T10:22:11;6.10;;;1.60;;
75535;SDS011;64119;52.070;20.804;2023-04-30T10:24:39;2.60;;;1.00;;
75535;SDS011;64119;52.070;20.804;2023-04-30T10:27:08;3.20;;;1.10;;
75535;SDS011;64119;52.070;20.804;2023-04-30T10:29:36;3.00;;;1.20;;
75535;SDS011;64119;52.070;20.804;2023-04-30T10:32:04;2.60;;;1.10;;
75535;SDS011;64119;52.070;20.804;2023-04-30T10:34:40;2.40;;;1.10;;
75535;SDS011;64119;52.070;20.804;2023-04-30T10:37:20;1.40;;;0.90;;
75535;SDS011;64119;52.070;20.804;2023-04-30T10:39:54;2.60;;;1.10;;
75535;SDS011;64119;52.070;20.804;2023-04-30T10:42:22;2.70;;;0.90;;
75535;SDS011;64119;52.070;20.804;2023-04-30T10:44:50;3.60;;;1.00;;
75535;SDS011;64119;52.070;20.804;2023-04-30T10:47:18;2.70;;;1.00;;
75535;SDS011;64119;52.070;20.804;2023-04-30T10:52:28;4.90;;;2.00;;
75535;SDS011;64119;52.070;20.804;2023-04-30T10:54:56;2.20;;;1.30;;
75535;SDS011;64119;52.070;20.804;2023-04-30T10:57:30;5.10;;;1.80;;
75535;SDS011;64119;52.070;20.804;2023-04-30T11:05:11;2.10;;;1.00;;
75535;SDS011;64119;52.070;20.804;2023-04-30T11:10:23;2.80;;;1.00;;
75535;SDS011;64119;52.070;20.804;2023-04-30T11:12:53;2.70;;;1.20;;
75535;SDS011;64119;52.070;20.804;2023-04-30T11:15:28;2.10;;;1.10;;
75535;SDS011;64119;52.070;20.804;2023-04-30T11:18:01;5.20;;;1.10;;
75535;SDS011;64119;52.070;20.804;2023-04-30T11:20:29;2.50;;;1.00;;
75535;SDS011;64119;52.070;20.804;2023-04-30T11:23:10;4.50;;;1.30;;
75535;SDS011;64119;52.070;20.804;2023-04-30T11:25:54;2.40;;;0.80;;
75535;SDS011;64119;52.070;20.804;2023-04-30T11:28:26;4.90;;;1.20;;
75535;SDS011;64119;52.070;20.804;2023-04-30T11:33:27;2.40;;;1.10;;
75535;SDS011;64119;52.070;20.804;2023-04-30T11:35:58;3.70;;;1.20;;
75535;SDS011;64119;52.070;20.804;2023-04-30T11:38:28;3.00;;;1.20;;
75535;SDS011;64119;52.070;20.804;2023-04-30T11:41:03;4.20;;;1.10;;
75535;SDS011;64119;52.070;20.804;2023-04-30T11:43:33;3.20;;;1.00;;
75535;SDS011;64119;52.070;20.804;2023-04-30T11:48:44;1.70;;;0.90;;
75535;SDS011;64119;52.070;20.804;2023-04-30T11:51:18;2.60;;;1.10;;
75535;SDS011;64119;52.070;20.804;2023-04-30T11:53:49;2.40;;;1.30;;
75535;SDS011;64119;52.070;20.804;2023-04-30T11:56:18;1.90;;;1.40;;
75535;SDS011;64119;52.070;20.804;2023-04-30T11:58:51;2.30;;;1.00;;
75535;SDS011;64119;52.070;20.804;2023-04-30T12:01:20;1.50;;;0.90;;
75535;SDS011;64119;52.070;20.804;2023-04-30T12:03:49;3.30;;;1.10;;
75535;SDS011;64119;52.070;20.804;2023-04-30T12:06:23;2.80;;;1.10;;
75535;SDS011;64119;52.070;20.804;2023-04-30T12:08:53;2.80;;;1.10;;
75535;SDS011;64119;52.070;20.804;2023-04-30T12:18:12;3.10;;;1.10;;
75535;SDS011;64119;52.070;20.804;2023-04-30T12:20:41;1.90;;;0.80;;
75535;SDS011;64119;52.070;20.804;2023-04-30T12:23:10;2.30;;;1.00;;
75535;SDS011;64119;52.070;20.804;2023-04-30T12:25:40;2.40;;;1.00;;
75535;SDS011;64119;52.070;20.804;2023-04-30T12:28:10;2.00;;;1.10;;
75535;SDS011;64119;52.070;20.804;2023-04-30T12:30:38;2.50;;;1.30;;
75535;SDS011;64119;52.070;20.804;2023-04-30T12:33:09;3.30;;;0.80;;
75535;SDS011;64119;52.070;20.804;2023-04-30T12:35:40;1.70;;;0.80;;
75535;SDS011;64119;52.070;20.804;2023-04-30T12:38:09;2.00;;;1.10;;
75535;SDS011;64119;52.070;20.804;2023-04-30T12:40:37;3.30;;;1.00;;
75535;SDS011;64119;52.070;20.804;2023-04-30T12:43:07;2.20;;;0.90;;
75535;SDS011;64119;52.070;20.804;2023-04-30T12:48:11;2.10;;;0.70;;
75535;SDS011;64119;52.070;20.804;2023-04-30T12:50:40;3.00;;;0.90;;
75535;SDS011;64119;52.070;20.804;2023-04-30T12:53:08;3.10;;;1.00;;
75535;SDS011;64119;52.070;20.804;2023-04-30T12:55:36;3.40;;;0.70;;
75535;SDS011;64119;52.070;20.804;2023-04-30T12:58:07;1.40;;;0.70;;
75535;SDS011;64119;52.070;20.804;2023-04-30T13:00:43;2.90;;;1.10;;
75535;SDS011;64119;52.070;20.804;2023-04-30T13:03:11;1.70;;;0.60;;
75535;SDS011;64119;52.070;20.804;2023-04-30T13:05:40;1.90;;;0.80;;
75535;SDS011;64119;52.070;20.804;2023-04-30T13:08:08;1.50;;;0.90;;
75535;SDS011;64119;52.070;20.804;2023-04-30T13:10:36;1.20;;;0.70;;
75535;SDS011;64119;52.070;20.804;2023-04-30T13:13:04;0.90;;;0.60;;
75535;SDS011;64119;52.070;20.804;2023-04-30T13:15:32;4.20;;;1.10;;
75535;SDS011;64119;52.070;20.804;2023-04-30T13:18:00;1.50;;;0.70;;
75535;SDS011;64119;52.070;20.804;2023-04-30T13:20:28;1.70;;;0.80;;
75535;SDS011;64119;52.070;20.804;2023-04-30T13:22:56;2.10;;;0.90;;
75535;SDS011;64119;52.070;20.804;2023-04-30T13:25:24;2.40;;;0.80;;
75535;SDS011;64119;52.070;20.804;2023-04-30T13:27:52;2.10;;;0.80;;
75535;SDS011;64119;52.070;20.804;2023-04-30T13:30:20;1.70;;;1.10;;
75535;SDS011;64119;52.070;20.804;2023-04-30T13:32:48;2.60;;;0.70;;
75535;SDS011;64119;52.070;20.804;2023-04-30T13:35:16;2.30;;;0.90;;
75535;SDS011;64119;52.070;20.804;2023-04-30T13:37:44;1.90;;;1.00;;
75535;SDS011;64119;52.070;20.804;2023-04-30T13:40:14;2.00;;;0.60;;
75535;SDS011;64119;52.070;20.804;2023-04-30T13:42:43;1.90;;;0.80;;
75535;SDS011;64119;52.070;20.804;2023-04-30T13:45:12;1.20;;;0.70;;
75535;SDS011;64119;52.070;20.804;2023-04-30T13:47:40;1.10;;;0.50;;
75535;SDS011;64119;52.070;20.804;2023-04-30T13:50:08;1.80;;;0.90;;
75535;SDS011;64119;52.070;20.804;2023-04-30T13:52:36;3.90;;;1.10;;
75535;SDS011;64119;52.070;20.804;2023-04-30T13:55:04;2.00;;;1.10;;
75535;SDS011;64119;52.070;20.804;2023-04-30T13:57:33;1.40;;;0.80;;
75535;SDS011;64119;52.070;20.804;2023-04-30T14:00:01;1.70;;;1.00;;
75535;SDS011;64119;52.070;20.804;2023-04-30T14:02:34;2.40;;;0.90;;
75535;SDS011;64119;52.070;20.804;2023-04-30T14:05:02;3.10;;;0.90;;
75535;SDS011;64119;52.070;20.804;2023-04-30T14:07:33;2.70;;;0.80;;
75535;SDS011;64119;52.070;20.804;2023-04-30T14:10:01;3.10;;;0.90;;
75535;SDS011;64119;52.070;20.804;2023-04-30T14:12:30;2.20;;;0.60;;
75535;SDS011;64119;52.070;20.804;2023-04-30T14:14:57;1.80;;;0.70;;
75535;SDS011;64119;52.070;20.804;2023-04-30T14:17:25;2.10;;;0.50;;
75535;SDS011;64119;52.070;20.804;2023-04-30T14:19:54;1.60;;;0.60;;
75535;SDS011;64119;52.070;20.804;2023-04-30T14:22:22;3.10;;;1.00;;
75535;SDS011;64119;52.070;20.804;2023-04-30T14:24:51;1.90;;;0.80;;
75535;SDS011;64119;52.070;20.804;2023-04-30T14:27:19;0.80;;;0.60;;
75535;SDS011;64119;52.070;20.804;2023-04-30T14:29:48;1.40;;;0.60;;
75535;SDS011;64119;52.070;20.804;2023-04-30T14:32:15;1.80;;;0.90;;
75535;SDS011;64119;52.070;20.804;2023-04-30T14:34:43;0.90;;;0.60;;
75535;SDS011;64119;52.070;20.804;2023-04-30T14:37:11;1.70;;;0.80;;
75535;SDS011;64119;52.070;20.804;2023-04-30T14:39:39;2.10;;;0.80;;
75535;SDS011;64119;52.070;20.804;2023-04-30T14:42:07;1.60;;;0.60;;
75535;SDS011;64119;52.070;20.804;2023-04-30T14:44:36;1.10;;;0.60;;
75535;SDS011;64119;52.070;20.804;2023-04-30T14:47:04;3.00;;;0.70;;
75535;SDS011;64119;52.070;20.804;2023-04-30T14:49:32;1.00;;;0.70;;
75535;SDS011;64119;52.070;20.804;2023-04-30T14:52:00;1.90;;;0.90;;
75535;SDS011;64119;52.070;20.804;2023-04-30T14:54:28;3.00;;;1.10;;
75535;SDS011;64119;52.070;20.804;2023-04-30T14:56:56;1.90;;;0.90;;
75535;SDS011;64119;52.070;20.804;2023-04-30T14:59:24;2.10;;;0.90;;
75535;SDS011;64119;52.070;20.804;2023-04-30T15:01:52;2.00;;;0.80;;
75535;SDS011;64119;52.070;20.804;2023-04-30T15:04:23;2.10;;;1.10;;
75535;SDS011;64119;52.070;20.804;2023-04-30T15:06:51;2.60;;;0.80;;
75535;SDS011;64119;52.070;20.804;2023-04-30T15:09:20;2.80;;;1.00;;
75535;SDS011;64119;52.070;20.804;2023-04-30T15:11:48;3.80;;;1.00;;
75535;SDS011;64119;52.070;20.804;2023-04-30T15:14:15;1.20;;;0.90;;
75535;SDS011;64119;52.070;20.804;2023-04-30T15:16:43;2.40;;;1.10;;
75535;SDS011;64119;52.070;20.804;2023-04-30T15:19:11;2.10;;;0.70;;
75535;SDS011;64119;52.070;20.804;2023-04-30T15:21:39;1.80;;;0.90;;
75535;SDS011;64119;52.070;20.804;2023-04-30T15:24:08;3.00;;;0.80;;
75535;SDS011;64119;52.070;20.804;2023-04-30T15:26:36;1.40;;;0.70;;
75535;SDS011;64119;52.070;20.804;2023-04-30T15:29:03;1.90;;;0.80;;
75535;SDS011;64119;52.070;20.804;2023-04-30T15:31:32;1.80;;;0.70;;
75535;SDS011;64119;52.070;20.804;2023-04-30T15:34:00;2.40;;;0.80;;
75535;SDS011;64119;52.070;20.804;2023-04-30T15:36:28;0.90;;;0.50;;
75535;SDS011;64119;52.070;20.804;2023-04-30T15:38:57;1.40;;;0.70;;
75535;SDS011;64119;52.070;20.804;2023-04-30T15:43:53;2.10;;;0.90;;
75535;SDS011;64119;52.070;20.804;2023-04-30T15:46:21;1.50;;;0.60;;
75535;SDS011;64119;52.070;20.804;2023-04-30T15:48:49;1.80;;;0.80;;
75535;SDS011;64119;52.070;20.804;2023-04-30T15:51:17;2.40;;;0.80;;
75535;SDS011;64119;52.070;20.804;2023-04-30T15:53:45;1.90;;;1.00;;
75535;SDS011;64119;52.070;20.804;2023-04-30T15:56:13;2.00;;;0.90;;